M I D A S
Marine Information and Data Acquisition System
Tripno 1201 of the Zeeleeuw from 2007-01-16 07:30:47 to 2007-01-16 16:02:14
Back to CruiseResearch ActivitiesStationsMapUnderway DataData graphs

EquipmentUnitsComment
TimeDGPSUTC
LatitudeDGPSDM.mWGS84
LongitudeDGPSDM.mWGS84
HeadingGyrodeg 
SOGDGPSknotsSpeed over ground
COGDGPSdegCourse over ground
DepthEcho soundermeters200 kHz
Missing or incorrect values are displayed as -999
Navigation data collected by the RV Zeeleeuw from 2007-01-16 07:34:15 to 2007-01-16 16:20:21
Time Latitude Longitude Heading SOG COG Depth
2007-01-16 07:35:20 51°13.607 2°56.062 112.1 2.2 293 -999
2007-01-16 07:36:20 51°13.614 2°56.028 107.1 0.4 293 11
2007-01-16 07:37:20 51°13.621 2°55.991 115.1 2.3 290 -999
2007-01-16 07:38:21 51°13.643 2°55.92 125.6 3.4 299 -999
2007-01-16 07:39:21 51°13.676 2°55.843 127.6 3.7 307 -999
2007-01-16 07:40:20 51°13.707 2°55.764 111.4 3.2 292 -999
2007-01-16 07:41:20 51°13.714 2°55.704 89.2 1.3 279 13
2007-01-16 07:42:20 51°13.722 2°55.709 61.1 1.5 46 13
2007-01-16 07:43:20 51°13.727 2°55.714 35.9 0.8 224 12.4
2007-01-16 07:44:20 51°13.737 2°55.711 5.8 2 354 11.9
2007-01-16 07:45:20 51°13.799 2°55.663 336.7 6 334 11.8
2007-01-16 07:46:20 51°13.904 2°55.584 339.3 7.5 334 12.4
2007-01-16 07:47:20 51°14.02 2°55.503 340.9 7.8 336 12.3
2007-01-16 07:48:20 51°14.136 2°55.416 338.5 7.8 334 12.3
2007-01-16 07:49:20 51°14.252 2°55.291 325.5 9.5 320 12.5
2007-01-16 07:50:20 51°14.373 2°55.104 320.5 10.7 319 11.3
2007-01-16 07:51:20 51°14.538 2°54.932 330.3 12.3 327 11
2007-01-16 07:52:20 51°14.641 2°54.679 286.7 11.3 279 11
2007-01-16 07:53:20 51°14.583 2°54.415 235 10.8 225 12.1
2007-01-16 07:54:20 51°14.457 2°54.219 246.3 11.1 248 11.5
2007-01-16 07:55:20 51°14.405 2°53.919 256.9 12 254 11.3
2007-01-16 07:56:20 51°14.32 2°53.636 242.5 11.8 237 11.4
2007-01-16 07:57:20 51°14.194 2°53.378 235.1 12.5 232 11.5
2007-01-16 07:58:20 51°14.067 2°53.114 235.8 12.6 234 11.9
2007-01-16 07:59:20 51°13.942 2°52.849 236.2 12.5 233 12
2007-01-16 08:00:20 51°13.818 2°52.581 236.6 12.6 234 12
2007-01-16 08:01:20 51°13.695 2°52.313 238 12.5 236 12
2007-01-16 08:02:20 51°13.578 2°52.038 238.6 12.5 236 12.1
2007-01-16 08:03:20 51°13.467 2°51.758 241 12.5 239 12.3
2007-01-16 08:04:20 51°13.357 2°51.477 241 12.5 238 12.3
2007-01-16 08:05:20 51°13.252 2°51.192 243.2 12.5 240 12.4
2007-01-16 08:06:20 51°13.149 2°50.904 243.1 12.5 241 12.6
2007-01-16 08:07:20 51°13.048 2°50.615 243.7 12.4 240 12.8
2007-01-16 08:08:20 51°12.946 2°50.327 243.3 12.5 240 12.8
2007-01-16 08:09:20 51°12.844 2°50.039 243.1 12.5 240 12.9
2007-01-16 08:10:20 51°12.741 2°49.751 243.3 12.5 240 13.1
2007-01-16 08:11:20 51°12.639 2°49.464 243.3 12.5 240 13.3
2007-01-16 08:12:20 51°12.538 2°49.176 243.4 12.4 240 13.2
2007-01-16 08:13:20 51°12.436 2°48.891 243.1 12.4 240 13.3
2007-01-16 08:14:20 51°12.335 2°48.604 244.1 12.4 241 13.3
2007-01-16 08:15:20 51°12.237 2°48.314 246.3 12.5 244 13.4
2007-01-16 08:16:20 51°12.147 2°48.018 246.6 12.4 244 13.6
2007-01-16 08:17:20 51°12.057 2°47.722 246.7 12.4 244 13.7
2007-01-16 08:18:20 51°11.969 2°47.425 248.8 12.5 247 13.7
2007-01-16 08:19:20 51°11.886 2°47.124 248.3 12.4 246 13.8
2007-01-16 08:20:20 51°11.802 2°46.822 248.5 12.4 246 14
2007-01-16 08:21:20 51°11.718 2°46.522 248.3 12.4 245 14.1
2007-01-16 08:22:20 51°11.635 2°46.222 248.7 12.4 246 14.2
2007-01-16 08:23:20 51°11.553 2°45.922 248.7 12.3 247 14.1
2007-01-16 08:24:20 51°11.47 2°45.623 248.3 12.3 247 14.2
2007-01-16 08:25:20 51°11.386 2°45.326 248 12.3 246 14
2007-01-16 08:26:20 51°11.303 2°45.027 248.3 12.3 246 13.9
2007-01-16 08:27:20 51°11.221 2°44.731 248.4 12.3 246 13.8
2007-01-16 08:28:20 51°11.139 2°44.434 248.3 12.2 246 13.7
2007-01-16 08:29:20 51°11.056 2°44.137 248.4 12.3 247 13.6
2007-01-16 08:30:20 51°10.974 2°43.839 248.5 12.3 247 13.5
2007-01-16 08:31:20 51°10.891 2°43.543 248.2 12.3 246 13.3
2007-01-16 08:32:20 51°10.808 2°43.246 248.5 12.3 246 13.2
2007-01-16 08:33:20 51°10.726 2°42.949 248.7 12.3 246 13.2
2007-01-16 08:34:20 51°10.644 2°42.652 248.2 12.2 246 13
2007-01-16 08:35:20 51°10.561 2°42.357 248.3 12.2 246 13
2007-01-16 08:36:20 51°10.479 2°42.061 248.6 12.2 247 12.8
2007-01-16 08:37:20 51°10.396 2°41.766 248 12.2 246 12.9
2007-01-16 08:38:20 51°10.312 2°41.472 248 12.2 245 12.8
2007-01-16 08:39:20 51°10.232 2°41.177 248.9 12.1 246 12.8
2007-01-16 08:40:20 51°10.15 2°40.887 248 12 246 12.8
2007-01-16 08:41:20 51°10.069 2°40.598 247.7 12 245 12.9
2007-01-16 08:42:20 51°9.986 2°40.309 248.1 12 245 12.8
2007-01-16 08:43:20 51°9.904 2°40.018 248.4 12 246 12.9
2007-01-16 08:44:20 51°9.822 2°39.727 248.8 12 246 12.8
2007-01-16 08:45:20 51°9.74 2°39.436 248.3 12.1 247 12.9
2007-01-16 08:46:20 51°9.661 2°39.141 249.6 12.2 247 13
2007-01-16 08:47:20 51°9.582 2°38.843 249.3 12.3 246 13.2
2007-01-16 08:48:20 51°9.502 2°38.544 249.7 12.2 247 13.3
2007-01-16 08:49:20 51°9.429 2°38.241 251.4 12.3 249 13.3
2007-01-16 08:50:20 51°9.356 2°37.937 251.4 12.3 249 13.2
2007-01-16 08:51:20 51°9.283 2°37.633 251.6 12.2 248 13.3
2007-01-16 08:52:20 51°9.212 2°37.329 251.5 12.3 250 13.3
2007-01-16 08:53:20 51°9.144 2°37.023 253.6 12.3 251 13.4
2007-01-16 08:54:20 51°9.08 2°36.715 253.6 12.2 252 13.5
2007-01-16 08:55:20 51°9.016 2°36.41 253.9 12.2 252 13.8
2007-01-16 08:56:20 51°8.953 2°36.105 253.3 12.2 252 14.5
2007-01-16 08:57:20 51°8.889 2°35.801 252.8 12.1 252 15.3
2007-01-16 08:58:20 51°8.829 2°35.494 253.3 12.2 252 16.3
2007-01-16 08:59:20 51°8.768 2°35.187 253.5 12.2 252 17.3
2007-01-16 09:00:20 51°8.706 2°34.881 252.8 12.2 253 18.5
2007-01-16 09:01:20 51°8.645 2°34.574 253.6 12.2 253 19.2
2007-01-16 09:02:20 51°8.584 2°34.269 252.5 12.1 251 19.7
2007-01-16 09:03:20 51°8.515 2°33.969 250.8 12.1 250 19.6
2007-01-16 09:04:20 51°8.448 2°33.666 251.2 12.1 251 19.5
2007-01-16 09:05:20 51°8.382 2°33.377 251.2 11.3 250 19.5
2007-01-16 09:06:21 51°8.319 2°33.093 251.4 11.2 251 19
2007-01-16 09:07:20 51°8.265 2°32.847 251.1 8.1 250 19.3
2007-01-16 09:08:20 51°8.226 2°32.724 237.6 3.4 241 20.1
2007-01-16 09:09:20 51°8.219 2°32.657 261.9 2.2 280 21
2007-01-16 09:10:20 51°8.23 2°32.609 276.5 2 312 21.2
2007-01-16 09:11:20 51°8.259 2°32.589 296.4 1.8 355 21.1
2007-01-16 09:12:20 51°8.288 2°32.589 291 1.6 3 21
2007-01-16 09:13:20 51°8.311 2°32.597 279.3 1.4 19 20.8
2007-01-16 09:14:20 51°8.334 2°32.611 277.2 1.6 26 20.9
2007-01-16 09:15:20 51°8.357 2°32.629 272.2 1.5 29 20.7
2007-01-16 09:16:20 51°8.381 2°32.65 270 1.7 30 20.6
2007-01-16 09:17:20 51°8.406 2°32.673 268.6 1.8 31 20.9
2007-01-16 09:18:20 51°8.433 2°32.699 275 1.9 30 20.7
2007-01-16 09:19:20 51°8.46 2°32.725 278.6 1.9 29 21.1
2007-01-16 09:20:20 51°8.487 2°32.752 283.7 1.9 33 21.3
2007-01-16 09:21:20 51°8.515 2°32.78 286.2 2 31 21.3
2007-01-16 09:22:20 51°8.543 2°32.81 287.6 2 34 21.7
2007-01-16 09:23:20 51°8.571 2°32.841 289.7 2.1 33 21.7
2007-01-16 09:24:20 51°8.599 2°32.872 293.3 2 36 22
2007-01-16 09:25:20 51°8.626 2°32.902 293.9 1.9 35 22.2
2007-01-16 09:26:21 51°8.653 2°32.933 296.5 2 37 22
2007-01-16 09:27:20 51°8.679 2°32.963 294.9 1.9 37 21.8
2007-01-16 09:28:20 51°8.706 2°32.995 292.4 2.1 36 21.5
2007-01-16 09:29:21 51°8.732 2°33.027 289.4 1.9 36 21.4
2007-01-16 09:30:20 51°8.758 2°33.058 285 1.9 38 21.2
2007-01-16 09:31:20 51°8.785 2°33.085 291.2 1.9 23 21.1
2007-01-16 09:32:20 51°8.814 2°33.094 299.9 2 357 21.3
2007-01-16 09:33:21 51°8.855 2°33.078 311.2 3.2 339 21.3
2007-01-16 09:34:20 51°8.918 2°33.063 347.6 4.5 3 21.4
2007-01-16 09:35:20 51°8.985 2°33.111 43.3 4.2 43 21.4
2007-01-16 09:36:20 51°9.022 2°33.193 83.7 3.6 63 21
2007-01-16 09:37:20 51°9.041 2°33.278 102 3.4 74 21.1
2007-01-16 09:38:20 51°9.056 2°33.364 100.3 3.3 73 21.2
2007-01-16 09:39:20 51°9.08 2°33.446 73.1 3.6 59 21.2
2007-01-16 09:40:21 51°9.11 2°33.533 79.1 3.7 65 21.1
2007-01-16 09:41:20 51°9.131 2°33.621 96.3 3.6 74 20.9
2007-01-16 09:42:21 51°9.142 2°33.714 110.6 3.5 82 20.9
2007-01-16 09:43:20 51°9.145 2°33.801 123.4 3.3 91 21.1
2007-01-16 09:44:20 51°9.141 2°33.885 133.8 3.1 97 21.3
2007-01-16 09:45:20 51°9.131 2°33.963 143.2 3 103 20.6
2007-01-16 09:46:20 51°9.118 2°34.032 156.1 2.4 112 20.6
2007-01-16 09:47:20 51°9.1 2°34.086 173.7 2.4 131 19.9
2007-01-16 09:48:20 51°9.067 2°34.13 174.5 2.8 142 19.9
2007-01-16 09:49:21 51°9.027 2°34.181 168.9 3.1 139 19.4
2007-01-16 09:50:20 51°8.988 2°34.232 176.2 2.9 151 18.5
2007-01-16 09:51:20 51°8.946 2°34.249 203.8 2.5 187 18.6
2007-01-16 09:52:20 51°8.908 2°34.224 221.2 2.6 206 19.1
2007-01-16 09:53:20 51°8.862 2°34.216 200.3 2.9 183 19.1
2007-01-16 09:54:20 51°8.813 2°34.204 209 3 195 19.3
2007-01-16 09:55:20 51°8.767 2°34.172 218.7 2.9 211 19.1
2007-01-16 09:56:21 51°8.727 2°34.125 226.5 3 223 20.1
2007-01-16 09:57:20 51°8.693 2°34.069 229.3 2.9 221 19.8
2007-01-16 09:58:21 51°8.649 2°34.031 215.3 3 205 20.1
2007-01-16 09:59:20 51°8.603 2°33.996 216.3 3.1 207 20.1
2007-01-16 10:00:20 51°8.557 2°33.96 216 3.1 206 19.7
2007-01-16 10:01:20 51°8.511 2°33.923 216.1 3.1 207 19.9
2007-01-16 10:02:21 51°8.467 2°33.876 224.5 3.1 220 19.7
2007-01-16 10:03:20 51°8.434 2°33.815 235.9 3.1 238 19.8
2007-01-16 10:04:20 51°8.408 2°33.744 237.3 3.1 239 19.8
2007-01-16 10:05:21 51°8.381 2°33.672 237.8 3.1 240 19.7
2007-01-16 10:06:20 51°8.355 2°33.605 235.4 3 236 19.7
2007-01-16 10:07:20 51°8.328 2°33.538 236.1 3.1 237 19.7
2007-01-16 10:08:20 51°8.303 2°33.476 236.2 2.5 240 19.7
2007-01-16 10:09:21 51°8.285 2°33.425 236.8 2.1 242 19.7
2007-01-16 10:10:20 51°8.269 2°33.381 236 2 239 19.7
2007-01-16 10:11:20 51°8.251 2°33.334 235.9 2.1 239 19.7
2007-01-16 10:12:21 51°8.233 2°33.283 238.2 2.2 243 19.6
2007-01-16 10:13:20 51°8.216 2°33.23 238.8 2.3 243 19.7
2007-01-16 10:14:21 51°8.199 2°33.176 238.8 2.3 244 19.6
2007-01-16 10:15:20 51°8.183 2°33.124 241.4 2.3 249 19.5
2007-01-16 10:16:21 51°8.17 2°33.069 240.8 1.9 253 19.4
2007-01-16 10:17:20 51°8.171 2°33.025 262.9 1.8 291 19.4
2007-01-16 10:18:21 51°8.192 2°32.985 284.9 2.1 318 19.7
2007-01-16 10:19:21 51°8.225 2°32.956 307.9 2.6 344 19.9
2007-01-16 10:20:20 51°8.271 2°32.953 338.2 2.9 7 19.5
2007-01-16 10:21:21 51°8.323 2°32.97 356.2 3.2 16 19.3
2007-01-16 10:22:20 51°8.372 2°32.994 357.9 3.5 19 19.2
2007-01-16 10:23:21 51°8.425 2°33.031 14 3.3 29 19.2
2007-01-16 10:24:20 51°8.47 2°33.074 18.6 3.2 34 19.1
2007-01-16 10:25:21 51°8.514 2°33.121 21.3 3 35 19.2
2007-01-16 10:26:20 51°8.555 2°33.167 23.7 3.1 34 19.3
2007-01-16 10:27:20 51°8.598 2°33.226 46.7 3.6 48 19.6
2007-01-16 10:28:21 51°8.63 2°33.306 85 3.4 65 19.4
2007-01-16 10:29:20 51°8.641 2°33.392 122.6 3.4 92 19.1
2007-01-16 10:30:21 51°8.622 2°33.469 161.8 3.2 131 18.8
2007-01-16 10:31:20 51°8.575 2°33.502 194.1 3.4 178 18.8
2007-01-16 10:32:21 51°8.52 2°33.48 209 3.2 194 19.1
2007-01-16 10:33:20 51°8.471 2°33.478 195.7 2.9 174 19.3
2007-01-16 10:34:21 51°8.424 2°33.492 187.1 2.8 159 19.7
2007-01-16 10:35:21 51°8.38 2°33.519 190.1 2.7 168 20
2007-01-16 10:36:20 51°8.347 2°33.507 230 1.8 234 19.7
2007-01-16 10:37:21 51°8.34 2°33.453 248.6 2.2 258 19.6
2007-01-16 10:38:21 51°8.325 2°33.401 235.2 2.2 236 19.8
2007-01-16 10:39:21 51°8.301 2°33.355 230.2 2.3 229 19.7
2007-01-16 10:40:20 51°8.276 2°33.31 230.2 2.4 228 19.6
2007-01-16 10:41:21 51°8.25 2°33.259 232.4 2.5 234 19.6
2007-01-16 10:42:21 51°8.224 2°33.209 231.6 2.4 231 19.7
2007-01-16 10:43:20 51°8.203 2°33.162 233.6 2.1 235 19.4
2007-01-16 10:44:21 51°8.183 2°33.115 234.4 2.1 237 19.3
2007-01-16 10:45:21 51°8.168 2°33.066 241.1 2.1 247 19.3
2007-01-16 10:46:21 51°8.156 2°33.014 242.7 2.1 249 19.2
2007-01-16 10:47:20 51°8.143 2°32.963 242.4 2 248 19.2
2007-01-16 10:48:21 51°8.13 2°32.911 243.2 2.1 249 19.3
2007-01-16 10:49:20 51°8.118 2°32.859 243 2.1 249 19.3
2007-01-16 10:50:21 51°8.105 2°32.804 243 2.2 250 19.5
2007-01-16 10:51:21 51°8.091 2°32.754 238 2.1 244 19.4
2007-01-16 10:52:21 51°8.074 2°32.707 236.1 2.1 240 19.4
2007-01-16 10:53:21 51°8.058 2°32.658 236.6 2.1 240 19.5
2007-01-16 10:54:21 51°8.041 2°32.61 236.8 2.2 240 19.4
2007-01-16 10:55:21 51°8.023 2°32.562 236.6 2.1 242 19.4
2007-01-16 10:56:20 51°8.005 2°32.515 236.7 2.1 240 19.4
2007-01-16 10:57:21 51°7.988 2°32.465 237.4 2.1 243 19.4
2007-01-16 10:58:20 51°7.972 2°32.418 236.5 2.1 238 19.4
2007-01-16 10:59:21 51°7.955 2°32.37 237 2 240 19.4
2007-01-16 11:00:21 51°7.939 2°32.324 236.5 2 240 19.4
2007-01-16 11:01:21 51°7.922 2°32.278 236.9 2 241 19.3
2007-01-16 11:02:21 51°7.905 2°32.233 237.6 2 242 19.2
2007-01-16 11:03:20 51°7.889 2°32.187 238 2 241 19.4
2007-01-16 11:04:21 51°7.871 2°32.138 237.3 2.2 236 19.2
2007-01-16 11:05:20 51°7.852 2°32.09 236.8 2.3 239 19.3
2007-01-16 11:06:21 51°7.83 2°32.043 229.4 2.1 223 19.1
2007-01-16 11:07:20 51°7.807 2°32.004 238 2.1 245 18.9
2007-01-16 11:08:21 51°7.812 2°31.942 279.9 2.7 300 19.6
2007-01-16 11:09:21 51°7.854 2°31.892 319.2 3.7 337 21
2007-01-16 11:10:21 51°7.918 2°31.882 353.6 4 8 20.7
2007-01-16 11:11:21 51°7.976 2°31.922 29.6 3.7 37 21.1
2007-01-16 11:12:20 51°8.014 2°32.004 80.3 3.8 69 21.3
2007-01-16 11:13:21 51°8.027 2°32.103 102.5 3.9 82 20.8
2007-01-16 11:14:21 51°8.03 2°32.206 116.6 3.8 93 18.9
2007-01-16 11:15:21 51°8.027 2°32.309 116.4 3.9 93 18.8
2007-01-16 11:16:21 51°8.023 2°32.411 116.5 3.8 95 19.5
2007-01-16 11:17:21 51°8.02 2°32.515 109.6 4 88 19.5
2007-01-16 11:18:21 51°8.032 2°32.621 86.7 4.1 71 19.1
2007-01-16 11:19:20 51°8.066 2°32.712 58.4 4.2 52 19
2007-01-16 11:20:21 51°8.114 2°32.799 53.1 4.2 49 19.2
2007-01-16 11:21:21 51°8.155 2°32.881 58.6 3.8 52 19.2
2007-01-16 11:22:21 51°8.192 2°32.957 59.1 3.6 52 19.3
2007-01-16 11:23:20 51°8.228 2°33.03 57.1 3.5 51 19.1
2007-01-16 11:24:21 51°8.266 2°33.101 54.2 3.5 48 19.3
2007-01-16 11:25:21 51°8.305 2°33.17 53.7 3.5 48 19.7
2007-01-16 11:26:21 51°8.343 2°33.24 58.7 3.5 52 19.2
2007-01-16 11:27:21 51°8.373 2°33.315 77.8 3 64 19.6
2007-01-16 11:28:21 51°8.389 2°33.382 99.5 2.5 72 19.1
2007-01-16 11:29:21 51°8.4 2°33.444 109.4 2.3 77 19.6
2007-01-16 11:30:21 51°8.407 2°33.503 119.9 2.2 83 19.3
2007-01-16 11:31:21 51°8.409 2°33.558 131.4 1.8 88 19.4
2007-01-16 11:32:21 51°8.412 2°33.6 137.3 1.4 76 19.3
2007-01-16 11:33:21 51°8.421 2°33.634 135.8 1.4 63 19.2
2007-01-16 11:34:21 51°8.432 2°33.666 130.6 1.4 55 19.3
2007-01-16 11:35:20 51°8.446 2°33.694 123.3 1.4 51 19.5
2007-01-16 11:36:21 51°8.456 2°33.736 123.6 2.2 90 19.1
2007-01-16 11:37:21 51°8.444 2°33.8 148.5 2.4 116 19.2
2007-01-16 11:38:21 51°8.434 2°33.852 151.5 1.8 101 19.3
2007-01-16 11:39:20 51°8.434 2°33.893 149.5 1.4 83 19.3
2007-01-16 11:40:21 51°8.44 2°33.929 148.5 1.3 70 19.3
2007-01-16 11:41:21 51°8.429 2°33.962 178 2.4 169 19.2
2007-01-16 11:42:21 51°8.406 2°33.898 272 4.2 289 19.2
2007-01-16 11:43:21 51°8.476 2°33.855 356.6 4.8 5 19.2
2007-01-16 11:44:21 51°8.546 2°33.912 44.2 4.7 45 19.1
2007-01-16 11:45:21 51°8.591 2°34.012 62.6 4.6 57 19.3
2007-01-16 11:46:21 51°8.632 2°34.11 60.8 4.4 56 19.5
2007-01-16 11:47:21 51°8.675 2°34.204 59.6 4.3 52 19.5
2007-01-16 11:48:21 51°8.722 2°34.287 48.6 4.1 47 19.1
2007-01-16 11:49:21 51°8.756 2°34.363 76.2 3 64 19.6
2007-01-16 11:50:21 51°8.776 2°34.428 85.4 2.5 63 19.3
2007-01-16 11:51:21 51°8.793 2°34.485 88.6 2.3 65 19.5
2007-01-16 11:52:21 51°8.81 2°34.542 88.5 2.4 66 19.3
2007-01-16 11:53:21 51°8.826 2°34.599 88.7 2.4 65 19
2007-01-16 11:54:21 51°8.843 2°34.657 86.7 2.4 65 19
2007-01-16 11:55:20 51°8.861 2°34.713 87 2.4 64 19
2007-01-16 11:56:21 51°8.879 2°34.772 87.3 2.4 64 19.1
2007-01-16 11:57:21 51°8.896 2°34.829 87.8 2.4 64 18.9
2007-01-16 11:58:21 51°8.911 2°34.886 91 2.3 68 18.9
2007-01-16 11:59:21 51°8.926 2°34.944 97.3 2.3 70 18.9
2007-01-16 12:00:21 51°8.936 2°35.004 106.4 2.4 78 18.8
2007-01-16 12:01:21 51°8.941 2°35.067 114.9 2.4 86 18.6
2007-01-16 12:02:21 51°8.941 2°35.13 122.6 2.3 93 18.7
2007-01-16 12:03:21 51°8.938 2°35.193 124.6 2.4 95 18.6
2007-01-16 12:04:21 51°8.935 2°35.257 123.3 2.5 94 18.6
2007-01-16 12:05:21 51°8.934 2°35.322 119.7 2.5 91 18.5
2007-01-16 12:06:21 51°8.937 2°35.389 105.6 2.6 79 18.3
2007-01-16 12:07:21 51°8.949 2°35.458 90 2.7 70 18.3
2007-01-16 12:08:21 51°8.967 2°35.526 83.9 2.8 66 18.2
2007-01-16 12:09:21 51°8.987 2°35.593 79.6 2.8 62 18.1
2007-01-16 12:10:21 51°9.009 2°35.659 75.8 2.8 60 18.1
2007-01-16 12:11:21 51°9.034 2°35.723 71.5 2.9 57 18
2007-01-16 12:12:21 51°9.06 2°35.787 68.9 2.9 57 19.7
2007-01-16 12:13:21 51°9.087 2°35.852 71.8 2.9 58 18.2
2007-01-16 12:14:21 51°9.111 2°35.917 73.4 2.9 59 18.1
2007-01-16 12:15:21 51°9.135 2°35.983 76.2 2.8 61 18.1
2007-01-16 12:16:21 51°9.157 2°36.049 77.6 2.8 62 18.1
2007-01-16 12:17:21 51°9.178 2°36.115 78.3 2.8 62 17.8
2007-01-16 12:18:21 51°9.201 2°36.181 76.7 2.8 61 17.8
2007-01-16 12:19:21 51°9.225 2°36.244 69 2.8 57 17.9
2007-01-16 12:20:21 51°9.254 2°36.304 59.5 2.9 50 17.9
2007-01-16 12:21:21 51°9.287 2°36.361 55.9 2.9 47 18
2007-01-16 12:22:21 51°9.319 2°36.419 58.9 2.9 50 18
2007-01-16 12:23:21 51°9.349 2°36.481 66.4 2.9 54 18
2007-01-16 12:24:21 51°9.376 2°36.543 68.1 2.8 56 17.9
2007-01-16 12:25:21 51°9.406 2°36.602 56.3 2.8 47 18
2007-01-16 12:26:21 51°9.442 2°36.655 49.5 3 43 17.9
2007-01-16 12:27:21 51°9.474 2°36.714 63.3 2.9 51 17.9
2007-01-16 12:28:21 51°9.503 2°36.775 65 2.9 55 17.8
2007-01-16 12:29:21 51°9.531 2°36.836 64.5 2.9 53 17.8
2007-01-16 12:30:21 51°9.561 2°36.897 61.5 3 53 17.6
2007-01-16 12:31:21 51°9.587 2°36.96 75.8 2.7 63 17.9
2007-01-16 12:32:21 51°9.6 2°37.023 100.1 2.3 79 17.9
2007-01-16 12:33:21 51°9.606 2°37.083 108 2.2 85 18
2007-01-16 12:34:21 51°9.609 2°37.143 113.2 2.3 89 18.1
2007-01-16 12:35:21 51°9.609 2°37.204 118.3 2.4 90 18
2007-01-16 12:36:21 51°9.608 2°37.257 123.3 1.8 89 17.9
2007-01-16 12:37:21 51°9.61 2°37.299 127.3 1.4 82 17.4
2007-01-16 12:38:21 51°9.611 2°37.336 136.6 1.5 96 17.4
2007-01-16 12:39:21 51°9.583 2°37.367 183.6 3 183 17.1
2007-01-16 12:40:21 51°9.549 2°37.282 254.2 6.5 253 17.1
2007-01-16 12:41:21 51°9.475 2°37.049 236.4 11.5 233 17.2
2007-01-16 12:42:21 51°9.36 2°36.778 240 13 240 16.9
2007-01-16 12:43:21 51°9.26 2°36.468 246.1 13.2 245 17.2
2007-01-16 12:44:21 51°9.171 2°36.15 248.3 13.2 247 17.1
2007-01-16 12:45:21 51°9.091 2°35.823 251.1 13.3 249 17.6
2007-01-16 12:46:21 51°9.013 2°35.496 251.1 13.2 249 17.7
2007-01-16 12:47:21 51°8.936 2°35.168 251.1 13.2 250 17.9
2007-01-16 12:48:21 51°8.859 2°34.842 251.1 13.2 249 17.9
2007-01-16 12:49:21 51°8.782 2°34.515 251.6 13.2 250 18.5
2007-01-16 12:50:21 51°8.704 2°34.189 251 13.2 249 18.4
2007-01-16 12:51:21 51°8.626 2°33.861 252 13.3 249 17.9
2007-01-16 12:52:21 51°8.549 2°33.532 251.5 13.2 249 17.3
2007-01-16 12:53:21 51°8.487 2°33.234 253.3 9.1 251 17.4
2007-01-16 12:54:21 51°8.44 2°33.045 249.3 7 249 17.7
2007-01-16 12:55:21 51°8.394 2°32.89 235.4 5.6 225 18.1
2007-01-16 12:56:21 51°8.319 2°32.786 237.2 6.8 242 18.7
2007-01-16 12:57:21 51°8.256 2°32.667 222.6 4.5 223 19.6
2007-01-16 12:58:21 51°8.213 2°32.61 216.2 2.6 218 19.7
2007-01-16 12:59:21 51°8.191 2°32.588 205.1 0.7 202 19.4
2007-01-16 13:00:21 51°8.183 2°32.588 182.3 0.3 138 19.3
2007-01-16 13:01:21 51°8.183 2°32.599 154 0.6 68 19.2
2007-01-16 13:02:21 51°8.188 2°32.614 130.8 0.7 56 19.4
2007-01-16 13:03:21 51°8.196 2°32.629 113.5 0.8 46 19.3
2007-01-16 13:04:21 51°8.205 2°32.645 108 0.8 48 19.2
2007-01-16 13:05:21 51°8.215 2°32.661 107 0.8 48 19.1
2007-01-16 13:06:21 51°8.223 2°32.677 108.1 0.8 50 19.2
2007-01-16 13:07:21 51°8.232 2°32.693 110.7 0.8 49 19
2007-01-16 13:08:21 51°8.24 2°32.708 114.1 0.7 49 18.8
2007-01-16 13:09:21 51°8.243 2°32.738 111.1 2.1 98 18.4
2007-01-16 13:10:21 51°8.202 2°32.785 179 3.8 183 18
2007-01-16 13:11:21 51°8.145 2°32.704 235.3 5.7 233 18.5
2007-01-16 13:12:21 51°8.074 2°32.579 228.1 6.7 226 18.2
2007-01-16 13:13:21 51°7.996 2°32.447 228.7 7 227 17.8
2007-01-16 13:14:21 51°7.918 2°32.313 229.9 6.9 228 17.6
2007-01-16 13:15:21 51°7.879 2°32.171 278.7 5.3 286 17.5
2007-01-16 13:16:21 51°7.945 2°32.118 10.2 4.7 12 17.7
2007-01-16 13:17:21 51°8.028 2°32.18 31.5 6.2 26 17.9
2007-01-16 13:18:21 51°8.123 2°32.302 44.9 8.2 26 17.7
2007-01-16 13:19:21 51°8.257 2°32.429 37.7 9.9 33 18.6
2007-01-16 13:20:21 51°8.391 2°32.583 47.9 9.4 41 19.3
2007-01-16 13:21:21 51°8.469 2°32.715 65.2 5.1 60 19.5
2007-01-16 13:22:21 51°8.484 2°32.787 105 1.2 77 19.1
2007-01-16 13:23:21 51°8.487 2°32.811 124.8 0.8 78 18.9
2007-01-16 13:24:21 51°8.49 2°32.829 128.4 0.6 69 18.7
2007-01-16 13:25:21 51°8.495 2°32.842 130.4 0.6 56 18.7
2007-01-16 13:26:21 51°8.501 2°32.853 130.9 0.6 41 18.6
2007-01-16 13:27:21 51°8.508 2°32.862 130.7 0.5 37 18.7
2007-01-16 13:28:21 51°8.516 2°32.87 130.5 0.6 28 18.7
2007-01-16 13:29:21 51°8.525 2°32.878 129.4 0.7 28 18.7
2007-01-16 13:30:21 51°8.535 2°32.884 124.8 0.7 19 18.9
2007-01-16 13:31:21 51°8.545 2°32.89 120 0.7 21 19.1
2007-01-16 13:32:21 51°8.556 2°32.896 115.6 0.7 17 19.2
2007-01-16 13:33:21 51°8.567 2°32.902 112.7 0.8 20 19.4
2007-01-16 13:34:21 51°8.579 2°32.907 110.3 0.7 18 19.4
2007-01-16 13:35:21 51°8.59 2°32.911 109.4 0.6 17 19.6
2007-01-16 13:36:21 51°8.6 2°32.917 109.5 0.7 23 19.7
2007-01-16 13:37:21 51°8.611 2°32.923 110.4 0.7 21 19.8
2007-01-16 13:38:21 51°8.621 2°32.93 112 0.7 19 19.9
2007-01-16 13:39:21 51°8.63 2°32.936 112.7 0.6 20 19.9
2007-01-16 13:40:21 51°8.639 2°32.941 113.5 0.6 18 19.9
2007-01-16 13:41:21 51°8.65 2°32.947 115.4 0.7 19 19.9
2007-01-16 13:42:21 51°8.66 2°32.951 115.5 0.4 11 19.8
2007-01-16 13:43:21 51°8.67 2°32.956 116.2 0.7 15 19.8
2007-01-16 13:44:21 51°8.681 2°32.961 115 0.6 14 19.8
2007-01-16 13:45:21 51°8.691 2°32.965 113.4 0.7 13 19.6
2007-01-16 13:46:21 51°8.702 2°32.97 111.3 0.7 16 19.5
2007-01-16 13:47:21 51°8.713 2°32.975 109.8 0.8 14 19.3
2007-01-16 13:48:21 51°8.724 2°32.98 109.4 0.7 20 19.2
2007-01-16 13:49:21 51°8.734 2°32.985 109.7 0.7 20 19
2007-01-16 13:50:21 51°8.741 2°33.012 91.2 1.6 72 19.2
2007-01-16 13:51:21 51°8.77 2°33.062 39.1 3.8 32 18.9
2007-01-16 13:52:21 51°8.869 2°33.18 48.6 10.2 43 19
2007-01-16 13:53:21 51°9.013 2°33.397 46.5 13 43 18.8
2007-01-16 13:54:21 51°9.159 2°33.659 65 13.5 63 18.4
2007-01-16 13:55:21 51°9.235 2°33.992 76.6 13.4 73 19
2007-01-16 13:56:21 51°9.313 2°34.335 75 13.8 69 18.8
2007-01-16 13:57:21 51°9.42 2°34.648 54.6 13.6 43 18.8
2007-01-16 13:58:21 51°9.61 2°34.854 37.4 14 33 19.9
2007-01-16 13:59:21 51°9.798 2°35.069 43.6 13.8 37 18.4
2007-01-16 14:00:21 51°9.982 2°35.292 43.4 13.9 37 14.5
2007-01-16 14:01:21 51°10.167 2°35.517 43.8 14 38 11.7
2007-01-16 14:02:21 51°10.352 2°35.745 43.8 14.1 38 11.5
2007-01-16 14:03:21 51°10.53 2°35.989 48.7 14.2 46 11.4
2007-01-16 14:04:21 51°10.693 2°36.255 51.5 14.1 44 11.2
2007-01-16 14:05:21 51°10.851 2°36.524 51.5 13.8 49 12.3
2007-01-16 14:06:21 51°11.01 2°36.792 51.4 14 45 12.4
2007-01-16 14:07:21 51°11.172 2°37.056 51.5 14.1 47 13.1
2007-01-16 14:08:21 51°11.331 2°37.324 51.4 13.8 47 13.6
2007-01-16 14:09:21 51°11.488 2°37.594 51.8 14 49 14
2007-01-16 14:10:21 51°11.65 2°37.86 51.5 13.9 46 14.2
2007-01-16 14:11:21 51°11.811 2°38.123 50.6 13.8 46 14.1
2007-01-16 14:12:21 51°11.97 2°38.387 51.7 13.7 44 13.9
2007-01-16 14:13:21 51°12.127 2°38.651 52.5 13.8 43 13.6
2007-01-16 14:14:21 51°12.268 2°38.884 53.2 10 46 13.7
2007-01-16 14:15:21 51°12.333 2°39.037 67.8 5.1 61 13.7
2007-01-16 14:16:21 51°12.373 2°39.123 50.3 3.9 39 13.6
2007-01-16 14:17:21 51°12.423 2°39.21 64.2 5 57 13.6
2007-01-16 14:18:21 51°12.47 2°39.291 42.6 4.2 37 13.6
2007-01-16 14:19:21 51°12.513 2°39.358 54.7 3.2 42 13.7
2007-01-16 14:20:21 51°12.555 2°39.387 19.3 2.3 10 13.7
2007-01-16 14:21:21 51°12.577 2°39.389 29 1.2 6 14
2007-01-16 14:22:21 51°12.594 2°39.391 28.3 0.9 5 14
2007-01-16 14:23:21 51°12.608 2°39.39 28.3 0.9 349 13.8
2007-01-16 14:24:21 51°12.619 2°39.387 40.1 0.4 331 13.8
2007-01-16 14:25:21 51°12.622 2°39.372 55.8 0.8 279 13.9
2007-01-16 14:26:21 51°12.63 2°39.375 76 1.9 72 14
2007-01-16 14:27:21 51°12.633 2°39.395 113.7 1.1 308 13.8
2007-01-16 14:28:21 51°12.645 2°39.365 103.6 0.4 341 5
2007-01-16 14:29:21 51°12.639 2°39.389 132.9 1.8 130 4.9
2007-01-16 14:30:21 51°12.602 2°39.412 169.1 2.8 172 13.6
2007-01-16 14:31:21 51°12.557 2°39.395 206.8 2.5 214 12
2007-01-16 14:32:21 51°12.546 2°39.373 219.9 0.7 258 13.5
2007-01-16 14:33:21 51°12.548 2°39.356 238.6 0.6 296 13.5
2007-01-16 14:34:21 51°12.555 2°39.351 264.8 0.6 33 13.8
2007-01-16 14:35:21 51°12.56 2°39.358 284.8 0.3 34 13.6
2007-01-16 14:36:21 51°12.564 2°39.361 297 0.2 10 13.5
2007-01-16 14:37:21 51°12.568 2°39.361 308.9 0.2 345 13.8
2007-01-16 14:38:21 51°12.57 2°39.361 317.9 0.1 32 13.9
2007-01-16 14:39:21 51°12.572 2°39.36 326.6 0.1 347 13.8
2007-01-16 14:40:21 51°12.573 2°39.359 335.2 0.1 328 13.8
2007-01-16 14:41:21 51°12.574 2°39.357 342.4 0.1 343 13.6
2007-01-16 14:42:21 51°12.576 2°39.353 346.1 0.2 317 13.5
2007-01-16 14:43:21 51°12.579 2°39.348 346.8 0.3 298 13.6
2007-01-16 14:44:21 51°12.584 2°39.343 343.4 0.3 315 13.7
2007-01-16 14:45:21 51°12.59 2°39.335 333.8 0.5 317 13.6
2007-01-16 14:46:21 51°12.613 2°39.315 351.3 3 344 13.6
2007-01-16 14:47:21 51°12.65 2°39.306 6.3 2.4 355 13.5
2007-01-16 14:48:21 51°12.688 2°39.335 61.6 1.8 47 13.3
2007-01-16 14:49:21 51°12.693 2°39.344 99.4 0.6 82 13.6
2007-01-16 14:50:21 51°12.677 2°39.37 145.9 2.2 155 13.5
2007-01-16 14:51:21 51°12.628 2°39.371 181.9 3.2 183 13.6
2007-01-16 14:52:21 51°12.591 2°39.393 142.6 2.1 146 13.6
2007-01-16 14:53:21 51°12.561 2°39.406 171.1 1.5 179 13.8
2007-01-16 14:54:21 51°12.551 2°39.399 168.7 0.4 234 13.1
2007-01-16 14:55:21 51°12.551 2°39.392 158.1 0.3 293 13.2
2007-01-16 14:56:21 51°12.554 2°39.385 138.2 0.4 305 13.1
2007-01-16 14:57:21 51°12.559 2°39.377 120.6 0.4 320 13.3
2007-01-16 14:58:21 51°12.564 2°39.371 111.1 0.4 323 13.5
2007-01-16 14:59:21 51°12.57 2°39.365 108.2 0.4 321 13.6
2007-01-16 15:00:21 51°12.574 2°39.36 107.9 0.3 311 13.6
2007-01-16 15:01:21 51°12.578 2°39.355 109.3 0.3 322 13.5
2007-01-16 15:02:21 51°12.576 2°39.362 122.6 0.9 131 13.5
2007-01-16 15:03:21 51°12.561 2°39.383 131.7 1 140 13.2
2007-01-16 15:04:21 51°12.551 2°39.392 136 0.5 163 13
2007-01-16 15:05:21 51°12.548 2°39.389 137.2 0.2 266 13.2
2007-01-16 15:06:21 51°12.55 2°39.382 134 0.3 289 13.2
2007-01-16 15:07:21 51°12.553 2°39.373 129.9 0.4 302 13
2007-01-16 15:08:21 51°12.557 2°39.364 124.8 0.5 305 13.1
2007-01-16 15:09:21 51°12.562 2°39.353 119.4 0.5 302 13.2
2007-01-16 15:10:21 51°12.567 2°39.342 115.1 0.5 310 13.2
2007-01-16 15:11:21 51°12.572 2°39.332 108.5 0.5 315 13.3
2007-01-16 15:12:21 51°12.576 2°39.336 92.1 1 77 13.4
2007-01-16 15:13:21 51°12.582 2°39.419 87.2 5.8 82 13.4
2007-01-16 15:14:21 51°12.629 2°39.632 72 10.2 66 13
2007-01-16 15:15:21 51°12.702 2°39.927 73.3 12.4 70 12.7
2007-01-16 15:16:21 51°12.779 2°40.24 72.4 12.6 67 12.3
2007-01-16 15:17:21 51°12.856 2°40.553 73.8 12.7 69 12.9
2007-01-16 15:18:21 51°12.928 2°40.87 75.1 12.8 69 13
2007-01-16 15:19:21 51°13.003 2°41.186 74.5 12.8 69 12.7
2007-01-16 15:20:21 51°13.076 2°41.503 74.7 12.8 71 12.5
2007-01-16 15:21:21 51°13.147 2°41.818 73.9 12.5 70 12.1
2007-01-16 15:22:21 51°13.221 2°42.14 73.3 13.1 71 11.7
2007-01-16 15:23:21 51°13.296 2°42.463 72.4 13.1 68 11.3
2007-01-16 15:24:21 51°13.367 2°42.787 74.7 13 70 10.8
2007-01-16 15:25:21 51°13.443 2°43.107 74.5 13.1 72 10.1
2007-01-16 15:26:21 51°13.517 2°43.428 74.2 12.8 71 9.4
2007-01-16 15:27:21 51°13.594 2°43.747 74.8 12.9 68 8.3
2007-01-16 15:28:21 51°13.668 2°44.063 74.3 12.5 71 8.7
2007-01-16 15:29:21 51°13.741 2°44.386 73.3 13 71 9.9
2007-01-16 15:30:21 51°13.812 2°44.715 75.4 13.1 71 11.1
2007-01-16 15:31:21 51°13.886 2°45.039 73 12.8 69 11.5
2007-01-16 15:32:21 51°13.961 2°45.357 75.1 12.9 70 11.6
2007-01-16 15:33:21 51°14.032 2°45.682 74.1 12.9 70 11.4
2007-01-16 15:34:21 51°14.107 2°46.003 72.8 12.9 69 11
2007-01-16 15:35:21 51°14.173 2°46.328 80.2 12.8 79 10.5
2007-01-16 15:36:21 51°14.218 2°46.66 80.5 12.7 77 9.3
2007-01-16 15:37:21 51°14.261 2°46.993 82 12.7 78 9.2
2007-01-16 15:38:21 51°14.304 2°47.327 82.1 12.9 78 9.3
2007-01-16 15:39:21 51°14.344 2°47.665 82.9 13.2 79 10.4
2007-01-16 15:40:21 51°14.373 2°48.004 84.8 12.8 82 11.3
2007-01-16 15:41:21 51°14.403 2°48.341 84.6 12.8 82 11.5
2007-01-16 15:42:21 51°14.435 2°48.678 84.3 13 80 11.5
2007-01-16 15:43:21 51°14.47 2°49.013 83.4 12.5 81 11.6
2007-01-16 15:44:21 51°14.502 2°49.344 84.4 12.6 82 11.6
2007-01-16 15:45:21 51°14.536 2°49.679 84.1 13.1 80 11.5
2007-01-16 15:46:21 51°14.569 2°50.015 83.4 12.8 81 11.5
2007-01-16 15:47:21 51°14.602 2°50.35 85.9 13.2 82 11.1
2007-01-16 15:48:21 51°14.622 2°50.688 87.8 12.7 86 10.8
2007-01-16 15:49:21 51°14.635 2°51.026 89.1 12.7 86 10.3
2007-01-16 15:50:21 51°14.651 2°51.365 88.5 12.9 86 10
2007-01-16 15:51:21 51°14.666 2°51.705 89.5 13.1 85 9.7
2007-01-16 15:52:21 51°14.683 2°52.045 88.6 12.8 87 9.5
2007-01-16 15:53:21 51°14.7 2°52.384 86.9 12.7 86 9.3
2007-01-16 15:54:21 51°14.716 2°52.725 87.3 12.7 84 9.2
2007-01-16 15:55:21 51°14.734 2°53.067 90.9 12.8 86 9
2007-01-16 15:56:21 51°14.741 2°53.409 93.7 13.3 90 10.4
2007-01-16 15:57:21 51°14.725 2°53.756 100.4 13.2 98 10.3
2007-01-16 15:58:21 51°14.681 2°54.094 106.4 12.2 108 10.9
2007-01-16 15:59:21 51°14.606 2°54.367 115 10.5 116 10.1
2007-01-16 16:00:21 51°14.531 2°54.605 117.5 10 118 10.7
2007-01-16 16:01:21 51°14.449 2°54.831 120.5 9.8 120 10.7